sensor_id;sensor_type;location;lat;lon;timestamp;P1;durP1;ratioP1;P2;durP2;ratioP2
25511;SDS011;13414;44.534;18.700;2023-04-01T00:03:00;16.13;;;6.30;;
25511;SDS011;13414;44.534;18.700;2023-04-01T00:05:27;14.57;;;5.85;;
25511;SDS011;13414;44.534;18.700;2023-04-01T00:07:54;10.02;;;6.13;;
25511;SDS011;13414;44.534;18.700;2023-04-01T00:10:22;14.30;;;6.10;;
25511;SDS011;13414;44.534;18.700;2023-04-01T00:12:51;14.05;;;6.40;;
25511;SDS011;13414;44.534;18.700;2023-04-01T00:15:18;14.60;;;6.20;;
25511;SDS011;13414;44.534;18.700;2023-04-01T00:17:46;19.10;;;7.20;;
25511;SDS011;13414;44.534;18.700;2023-04-01T00:20:13;14.05;;;7.20;;
25511;SDS011;13414;44.534;18.700;2023-04-01T00:22:41;12.57;;;6.35;;
25511;SDS011;13414;44.534;18.700;2023-04-01T00:25:09;14.90;;;5.70;;
25511;SDS011;13414;44.534;18.700;2023-04-01T00:27:36;14.23;;;6.75;;
25511;SDS011;13414;44.534;18.700;2023-04-01T00:30:06;13.73;;;6.35;;
25511;SDS011;13414;44.534;18.700;2023-04-01T00:32:35;15.98;;;8.68;;
25511;SDS011;13414;44.534;18.700;2023-04-01T00:35:03;18.52;;;8.52;;
25511;SDS011;13414;44.534;18.700;2023-04-01T00:37:31;24.02;;;10.73;;
25511;SDS011;13414;44.534;18.700;2023-04-01T00:40:03;21.98;;;9.63;;
25511;SDS011;13414;44.534;18.700;2023-04-01T00:42:32;16.65;;;9.05;;
25511;SDS011;13414;44.534;18.700;2023-04-01T00:45:21;17.58;;;9.18;;
25511;SDS011;13414;44.534;18.700;2023-04-01T00:47:54;19.13;;;9.77;;
25511;SDS011;13414;44.534;18.700;2023-04-01T00:50:22;17.23;;;8.75;;
25511;SDS011;13414;44.534;18.700;2023-04-01T00:52:51;16.75;;;8.77;;
25511;SDS011;13414;44.534;18.700;2023-04-01T00:55:19;16.63;;;7.60;;
25511;SDS011;13414;44.534;18.700;2023-04-01T00:57:49;14.60;;;6.40;;
25511;SDS011;13414;44.534;18.700;2023-04-01T01:00:18;19.48;;;8.90;;
25511;SDS011;13414;44.534;18.700;2023-04-01T01:02:48;11.32;;;5.47;;
25511;SDS011;13414;44.534;18.700;2023-04-01T01:05:17;14.95;;;5.10;;
25511;SDS011;13414;44.534;18.700;2023-04-01T01:10:30;10.07;;;4.38;;
25511;SDS011;13414;44.534;18.700;2023-04-01T01:13:03;14.30;;;4.90;;
25511;SDS011;13414;44.534;18.700;2023-04-01T01:15:36;10.07;;;5.07;;
25511;SDS011;13414;44.534;18.700;2023-04-01T01:18:12;12.43;;;5.28;;
25511;SDS011;13414;44.534;18.700;2023-04-01T01:24:14;13.05;;;6.97;;
25511;SDS011;13414;44.534;18.700;2023-04-01T01:26:53;10.18;;;5.80;;
25511;SDS011;13414;44.534;18.700;2023-04-01T01:29:39;13.57;;;5.68;;
25511;SDS011;13414;44.534;18.700;2023-04-01T01:32:51;11.68;;;4.35;;
25511;SDS011;13414;44.534;18.700;2023-04-01T01:35:40;15.00;;;3.97;;
25511;SDS011;13414;44.534;18.700;2023-04-01T01:38:16;15.25;;;4.18;;
25511;SDS011;13414;44.534;18.700;2023-04-01T01:40:54;12.55;;;5.00;;
25511;SDS011;13414;44.534;18.700;2023-04-01T01:43:25;10.68;;;5.03;;
25511;SDS011;13414;44.534;18.700;2023-04-01T01:45:59;10.88;;;4.53;;
25511;SDS011;13414;44.534;18.700;2023-04-01T01:48:31;9.00;;;4.82;;
25511;SDS011;13414;44.534;18.700;2023-04-01T01:51:02;11.73;;;4.78;;
25511;SDS011;13414;44.534;18.700;2023-04-01T01:53:31;11.70;;;4.45;;
25511;SDS011;13414;44.534;18.700;2023-04-01T01:55:59;9.90;;;4.22;;
25511;SDS011;13414;44.534;18.700;2023-04-01T01:58:31;14.77;;;8.27;;
25511;SDS011;13414;44.534;18.700;2023-04-01T02:01:07;10.32;;;5.65;;
25511;SDS011;13414;44.534;18.700;2023-04-01T02:03:38;42.50;;;30.58;;
25511;SDS011;13414;44.534;18.700;2023-04-01T02:06:09;11.60;;;7.93;;
25511;SDS011;13414;44.534;18.700;2023-04-01T02:08:41;10.10;;;5.65;;
25511;SDS011;13414;44.534;18.700;2023-04-01T02:11:12;8.45;;;4.90;;
25511;SDS011;13414;44.534;18.700;2023-04-01T02:13:47;8.65;;;4.90;;
25511;SDS011;13414;44.534;18.700;2023-04-01T02:16:19;7.60;;;4.50;;
25511;SDS011;13414;44.534;18.700;2023-04-01T02:18:50;7.93;;;4.80;;
25511;SDS011;13414;44.534;18.700;2023-04-01T02:21:22;7.70;;;4.57;;
25511;SDS011;13414;44.534;18.700;2023-04-01T02:23:54;9.55;;;4.88;;
25511;SDS011;13414;44.534;18.700;2023-04-01T02:26:23;8.90;;;5.75;;
25511;SDS011;13414;44.534;18.700;2023-04-01T02:28:52;7.80;;;5.30;;
25511;SDS011;13414;44.534;18.700;2023-04-01T02:31:20;8.18;;;5.07;;
25511;SDS011;13414;44.534;18.700;2023-04-01T02:33:50;7.75;;;4.80;;
25511;SDS011;13414;44.534;18.700;2023-04-01T02:36:17;7.63;;;4.20;;
25511;SDS011;13414;44.534;18.700;2023-04-01T02:38:46;8.18;;;5.05;;
25511;SDS011;13414;44.534;18.700;2023-04-01T02:41:16;6.30;;;4.30;;
25511;SDS011;13414;44.534;18.700;2023-04-01T02:43:43;7.10;;;4.78;;
25511;SDS011;13414;44.534;18.700;2023-04-01T02:46:11;6.95;;;4.78;;
25511;SDS011;13414;44.534;18.700;2023-04-01T02:48:38;8.43;;;4.80;;
25511;SDS011;13414;44.534;18.700;2023-04-01T02:51:06;8.50;;;5.00;;
25511;SDS011;13414;44.534;18.700;2023-04-01T02:53:34;7.78;;;4.72;;
25511;SDS011;13414;44.534;18.700;2023-04-01T02:56:03;7.18;;;4.35;;
25511;SDS011;13414;44.534;18.700;2023-04-01T02:58:31;6.60;;;3.92;;
25511;SDS011;13414;44.534;18.700;2023-04-01T03:00:59;7.55;;;4.40;;
25511;SDS011;13414;44.534;18.700;2023-04-01T03:03:26;6.65;;;4.18;;
25511;SDS011;13414;44.534;18.700;2023-04-01T03:05:54;8.18;;;4.18;;
25511;SDS011;13414;44.534;18.700;2023-04-01T03:08:24;7.40;;;3.67;;
25511;SDS011;13414;44.534;18.700;2023-04-01T03:10:51;7.38;;;3.60;;
25511;SDS011;13414;44.534;18.700;2023-04-01T03:13:20;7.50;;;3.70;;
25511;SDS011;13414;44.534;18.700;2023-04-01T03:15:48;6.13;;;3.67;;
25511;SDS011;13414;44.534;18.700;2023-04-01T03:18:15;5.70;;;3.33;;
25511;SDS011;13414;44.534;18.700;2023-04-01T03:20:43;4.63;;;3.08;;
25511;SDS011;13414;44.534;18.700;2023-04-01T03:23:11;5.88;;;2.88;;
25511;SDS011;13414;44.534;18.700;2023-04-01T03:25:39;5.85;;;2.67;;
25511;SDS011;13414;44.534;18.700;2023-04-01T03:28:07;6.68;;;3.30;;
25511;SDS011;13414;44.534;18.700;2023-04-01T03:30:37;6.57;;;3.42;;
25511;SDS011;13414;44.534;18.700;2023-04-01T03:33:05;5.13;;;3.15;;
25511;SDS011;13414;44.534;18.700;2023-04-01T03:35:33;7.00;;;3.60;;
25511;SDS011;13414;44.534;18.700;2023-04-01T03:38:01;5.00;;;3.10;;
25511;SDS011;13414;44.534;18.700;2023-04-01T03:40:30;5.97;;;4.38;;
25511;SDS011;13414;44.534;18.700;2023-04-01T03:42:59;5.90;;;5.05;;
25511;SDS011;13414;44.534;18.700;2023-04-01T03:45:26;9.50;;;5.82;;
25511;SDS011;13414;44.534;18.700;2023-04-01T03:47:56;7.30;;;5.75;;
25511;SDS011;13414;44.534;18.700;2023-04-01T03:50:23;9.35;;;5.00;;
25511;SDS011;13414;44.534;18.700;2023-04-01T03:52:51;6.88;;;4.75;;
25511;SDS011;13414;44.534;18.700;2023-04-01T03:55:19;5.75;;;4.18;;
25511;SDS011;13414;44.534;18.700;2023-04-01T03:57:47;8.80;;;4.63;;
25511;SDS011;13414;44.534;18.700;2023-04-01T04:00:17;8.32;;;4.80;;
25511;SDS011;13414;44.534;18.700;2023-04-01T04:02:51;7.03;;;4.70;;
25511;SDS011;13414;44.534;18.700;2023-04-01T04:05:27;5.72;;;3.90;;
25511;SDS011;13414;44.534;18.700;2023-04-01T04:07:54;7.03;;;4.10;;
25511;SDS011;13414;44.534;18.700;2023-04-01T04:10:23;7.00;;;3.88;;
25511;SDS011;13414;44.534;18.700;2023-04-01T04:12:50;5.82;;;3.50;;
25511;SDS011;13414;44.534;18.700;2023-04-01T04:15:21;5.95;;;3.90;;
25511;SDS011;13414;44.534;18.700;2023-04-01T04:17:49;7.78;;;4.57;;
25511;SDS011;13414;44.534;18.700;2023-04-01T04:20:16;6.35;;;4.35;;
25511;SDS011;13414;44.534;18.700;2023-04-01T04:22:45;6.07;;;4.75;;
25511;SDS011;13414;44.534;18.700;2023-04-01T04:25:13;6.65;;;4.90;;
25511;SDS011;13414;44.534;18.700;2023-04-01T04:27:41;6.90;;;5.50;;
25511;SDS011;13414;44.534;18.700;2023-04-01T04:30:11;9.05;;;5.85;;
25511;SDS011;13414;44.534;18.700;2023-04-01T04:32:39;7.80;;;6.07;;
25511;SDS011;13414;44.534;18.700;2023-04-01T04:35:09;9.40;;;7.10;;
25511;SDS011;13414;44.534;18.700;2023-04-01T04:37:36;11.68;;;8.02;;
25511;SDS011;13414;44.534;18.700;2023-04-01T04:40:06;11.18;;;8.35;;
25511;SDS011;13414;44.534;18.700;2023-04-01T04:42:35;13.45;;;9.05;;
25511;SDS011;13414;44.534;18.700;2023-04-01T04:45:08;13.55;;;10.40;;
25511;SDS011;13414;44.534;18.700;2023-04-01T04:47:41;18.02;;;12.35;;
25511;SDS011;13414;44.534;18.700;2023-04-01T04:50:08;16.35;;;13.00;;
25511;SDS011;13414;44.534;18.700;2023-04-01T04:52:38;16.83;;;13.52;;
25511;SDS011;13414;44.534;18.700;2023-04-01T04:55:09;18.42;;;15.23;;
25511;SDS011;13414;44.534;18.700;2023-04-01T04:57:37;22.38;;;17.25;;
25511;SDS011;13414;44.534;18.700;2023-04-01T05:00:05;19.83;;;16.02;;
25511;SDS011;13414;44.534;18.700;2023-04-01T05:02:46;22.75;;;16.92;;
25511;SDS011;13414;44.534;18.700;2023-04-01T05:05:14;22.42;;;18.45;;
25511;SDS011;13414;44.534;18.700;2023-04-01T05:07:42;23.90;;;18.52;;
25511;SDS011;13414;44.534;18.700;2023-04-01T05:10:11;22.00;;;16.92;;
25511;SDS011;13414;44.534;18.700;2023-04-01T05:12:38;23.17;;;18.00;;
25511;SDS011;13414;44.534;18.700;2023-04-01T05:15:08;22.98;;;17.73;;
25511;SDS011;13414;44.534;18.700;2023-04-01T05:17:37;20.75;;;15.98;;
25511;SDS011;13414;44.534;18.700;2023-04-01T05:20:05;20.92;;;17.45;;
25511;SDS011;13414;44.534;18.700;2023-04-01T05:22:34;21.20;;;16.67;;
25511;SDS011;13414;44.534;18.700;2023-04-01T05:25:01;21.00;;;16.35;;
25511;SDS011;13414;44.534;18.700;2023-04-01T05:27:30;23.42;;;18.23;;
25511;SDS011;13414;44.534;18.700;2023-04-01T05:29:59;24.48;;;18.73;;
25511;SDS011;13414;44.534;18.700;2023-04-01T05:32:50;25.90;;;20.70;;
25511;SDS011;13414;44.534;18.700;2023-04-01T05:35:17;30.67;;;23.63;;
25511;SDS011;13414;44.534;18.700;2023-04-01T05:37:45;25.17;;;19.25;;
25511;SDS011;13414;44.534;18.700;2023-04-01T05:40:15;21.35;;;16.27;;
25511;SDS011;13414;44.534;18.700;2023-04-01T05:45:17;23.83;;;11.77;;
25511;SDS011;13414;44.534;18.700;2023-04-01T05:48:14;2.63;;;0.63;;
25511;SDS011;13414;44.534;18.700;2023-04-01T05:50:43;0.20;;;0.20;;
25511;SDS011;13414;44.534;18.700;2023-04-01T05:53:11;0.43;;;0.43;;
25511;SDS011;13414;44.534;18.700;2023-04-01T05:55:41;0.43;;;0.43;;
25511;SDS011;13414;44.534;18.700;2023-04-01T05:58:10;0.22;;;0.22;;
25511;SDS011;13414;44.534;18.700;2023-04-01T06:00:41;0.20;;;0.20;;
25511;SDS011;13414;44.534;18.700;2023-04-01T06:03:09;1.50;;;1.40;;
25511;SDS011;13414;44.534;18.700;2023-04-01T06:05:38;0.52;;;0.52;;
25511;SDS011;13414;44.534;18.700;2023-04-01T06:08:10;0.10;;;0.10;;
25511;SDS011;13414;44.534;18.700;2023-04-01T06:10:42;20.10;;;14.70;;
25511;SDS011;13414;44.534;18.700;2023-04-01T06:13:21;30.17;;;21.20;;
25511;SDS011;13414;44.534;18.700;2023-04-01T06:16:04;24.52;;;18.55;;
25511;SDS011;13414;44.534;18.700;2023-04-01T06:18:44;23.55;;;17.65;;
25511;SDS011;13414;44.534;18.700;2023-04-01T06:21:33;23.10;;;17.20;;
25511;SDS011;13414;44.534;18.700;2023-04-01T06:24:27;32.30;;;20.98;;
25511;SDS011;13414;44.534;18.700;2023-04-01T06:27:18;32.55;;;22.58;;
25511;SDS011;13414;44.534;18.700;2023-04-01T06:30:03;25.98;;;19.67;;
25511;SDS011;13414;44.534;18.700;2023-04-01T06:32:53;27.00;;;19.50;;
25511;SDS011;13414;44.534;18.700;2023-04-01T06:35:44;26.35;;;19.23;;
25511;SDS011;13414;44.534;18.700;2023-04-01T06:38:32;20.83;;;14.75;;
25511;SDS011;13414;44.534;18.700;2023-04-01T06:41:22;18.90;;;13.10;;
25511;SDS011;13414;44.534;18.700;2023-04-01T06:44:14;16.60;;;11.85;;
25511;SDS011;13414;44.534;18.700;2023-04-01T06:47:10;18.77;;;14.73;;
25511;SDS011;13414;44.534;18.700;2023-04-01T06:50:11;12.95;;;11.40;;
25511;SDS011;13414;44.534;18.700;2023-04-01T06:53:25;16.73;;;14.40;;
25511;SDS011;13414;44.534;18.700;2023-04-01T06:56:28;22.15;;;18.60;;
25511;SDS011;13414;44.534;18.700;2023-04-01T06:59:07;27.23;;;21.40;;
25511;SDS011;13414;44.534;18.700;2023-04-01T07:01:44;22.55;;;19.67;;
25511;SDS011;13414;44.534;18.700;2023-04-01T07:04:18;24.13;;;18.25;;
25511;SDS011;13414;44.534;18.700;2023-04-01T07:06:52;16.58;;;13.93;;
25511;SDS011;13414;44.534;18.700;2023-04-01T07:09:30;13.10;;;10.98;;
25511;SDS011;13414;44.534;18.700;2023-04-01T07:12:19;12.98;;;11.57;;
25511;SDS011;13414;44.534;18.700;2023-04-01T07:15:14;13.98;;;10.68;;
25511;SDS011;13414;44.534;18.700;2023-04-01T07:17:46;11.10;;;6.93;;
25511;SDS011;13414;44.534;18.700;2023-04-01T07:20:22;6.03;;;4.00;;
25511;SDS011;13414;44.534;18.700;2023-04-01T07:22:57;12.75;;;5.85;;
25511;SDS011;13414;44.534;18.700;2023-04-01T07:25:54;5.45;;;3.95;;
25511;SDS011;13414;44.534;18.700;2023-04-01T07:28:31;8.32;;;4.95;;
25511;SDS011;13414;44.534;18.700;2023-04-01T07:31:10;7.20;;;4.40;;
25511;SDS011;13414;44.534;18.700;2023-04-01T07:33:47;5.75;;;3.75;;
25511;SDS011;13414;44.534;18.700;2023-04-01T07:36:24;8.52;;;3.80;;
25511;SDS011;13414;44.534;18.700;2023-04-01T07:39:01;6.78;;;4.30;;
25511;SDS011;13414;44.534;18.700;2023-04-01T07:42:00;5.35;;;3.20;;
25511;SDS011;13414;44.534;18.700;2023-04-01T07:44:35;46.33;;;17.92;;
25511;SDS011;13414;44.534;18.700;2023-04-01T07:47:12;8.20;;;4.23;;
25511;SDS011;13414;44.534;18.700;2023-04-01T07:49:50;13.45;;;9.57;;
25511;SDS011;13414;44.534;18.700;2023-04-01T07:52:33;9.25;;;4.15;;
25511;SDS011;13414;44.534;18.700;2023-04-01T07:55:14;9.07;;;5.88;;
25511;SDS011;13414;44.534;18.700;2023-04-01T07:57:47;7.63;;;4.93;;
25511;SDS011;13414;44.534;18.700;2023-04-01T08:00:24;11.13;;;6.40;;
25511;SDS011;13414;44.534;18.700;2023-04-01T08:03:09;14.88;;;7.80;;
25511;SDS011;13414;44.534;18.700;2023-04-01T08:05:52;10.63;;;5.97;;
25511;SDS011;13414;44.534;18.700;2023-04-01T08:08:27;49.58;;;36.55;;
25511;SDS011;13414;44.534;18.700;2023-04-01T08:11:26;22.00;;;15.35;;
25511;SDS011;13414;44.534;18.700;2023-04-01T08:14:24;10.50;;;7.32;;
25511;SDS011;13414;44.534;18.700;2023-04-01T08:17:33;10.57;;;6.07;;
25511;SDS011;13414;44.534;18.700;2023-04-01T08:20:10;9.55;;;5.80;;
25511;SDS011;13414;44.534;18.700;2023-04-01T08:22:47;39.83;;;23.02;;
25511;SDS011;13414;44.534;18.700;2023-04-01T08:25:26;50.10;;;28.67;;
25511;SDS011;13414;44.534;18.700;2023-04-01T08:27:57;18.10;;;11.45;;
25511;SDS011;13414;44.534;18.700;2023-04-01T08:30:34;24.77;;;16.13;;
25511;SDS011;13414;44.534;18.700;2023-04-01T08:33:11;24.17;;;12.38;;
25511;SDS011;13414;44.534;18.700;2023-04-01T08:35:44;28.45;;;17.85;;
25511;SDS011;13414;44.534;18.700;2023-04-01T08:38:18;24.38;;;14.68;;
25511;SDS011;13414;44.534;18.700;2023-04-01T08:40:55;18.10;;;9.30;;
25511;SDS011;13414;44.534;18.700;2023-04-01T08:43:40;18.60;;;11.30;;
25511;SDS011;13414;44.534;18.700;2023-04-01T08:46:33;13.45;;;7.80;;
25511;SDS011;13414;44.534;18.700;2023-04-01T08:49:19;13.75;;;8.02;;
25511;SDS011;13414;44.534;18.700;2023-04-01T08:54:59;17.70;;;10.82;;
25511;SDS011;13414;44.534;18.700;2023-04-01T09:01:31;18.73;;;13.45;;
25511;SDS011;13414;44.534;18.700;2023-04-01T09:04:36;19.17;;;11.23;;
25511;SDS011;13414;44.534;18.700;2023-04-01T09:07:20;17.75;;;12.27;;
25511;SDS011;13414;44.534;18.700;2023-04-01T09:17:28;16.63;;;12.18;;
25511;SDS011;13414;44.534;18.700;2023-04-01T09:20:17;13.63;;;10.07;;
25511;SDS011;13414;44.534;18.700;2023-04-01T09:22:57;15.90;;;9.15;;
25511;SDS011;13414;44.534;18.700;2023-04-01T09:25:48;15.38;;;10.02;;
25511;SDS011;13414;44.534;18.700;2023-04-01T09:28:27;7.82;;;4.68;;
25511;SDS011;13414;44.534;18.700;2023-04-01T09:37:29;10.68;;;4.20;;
25511;SDS011;13414;44.534;18.700;2023-04-01T09:40:09;4.63;;;2.22;;
25511;SDS011;13414;44.534;18.700;2023-04-01T09:42:52;6.78;;;2.67;;
25511;SDS011;13414;44.534;18.700;2023-04-01T09:45:40;15.10;;;5.05;;
25511;SDS011;13414;44.534;18.700;2023-04-01T09:48:15;8.57;;;3.83;;
25511;SDS011;13414;44.534;18.700;2023-04-01T09:50:55;7.60;;;3.58;;
25511;SDS011;13414;44.534;18.700;2023-04-01T09:53:36;11.18;;;3.85;;
25511;SDS011;13414;44.534;18.700;2023-04-01T09:56:19;5.72;;;3.67;;
25511;SDS011;13414;44.534;18.700;2023-04-01T10:08:50;9.52;;;4.68;;
25511;SDS011;13414;44.534;18.700;2023-04-01T10:11:53;9.75;;;5.95;;
25511;SDS011;13414;44.534;18.700;2023-04-01T10:18:08;8.38;;;3.60;;
25511;SDS011;13414;44.534;18.700;2023-04-01T10:20:59;13.27;;;11.18;;
25511;SDS011;13414;44.534;18.700;2023-04-01T10:27:12;9.70;;;5.32;;
25511;SDS011;13414;44.534;18.700;2023-04-01T10:43:37;23.17;;;13.13;;
25511;SDS011;13414;44.534;18.700;2023-04-01T10:46:38;19.67;;;12.55;;
25511;SDS011;13414;44.534;18.700;2023-04-01T10:52:41;18.45;;;11.98;;
25511;SDS011;13414;44.534;18.700;2023-04-01T10:56:03;22.20;;;13.32;;
25511;SDS011;13414;44.534;18.700;2023-04-01T11:03:11;21.67;;;12.15;;
25511;SDS011;13414;44.534;18.700;2023-04-01T11:13:03;28.98;;;18.30;;
25511;SDS011;13414;44.534;18.700;2023-04-01T11:16:03;28.00;;;17.20;;
25511;SDS011;13414;44.534;18.700;2023-04-01T11:25:05;24.77;;;15.30;;
25511;SDS011;13414;44.534;18.700;2023-04-01T11:31:31;18.55;;;12.25;;
25511;SDS011;13414;44.534;18.700;2023-04-01T11:34:14;13.23;;;9.25;;
25511;SDS011;13414;44.534;18.700;2023-04-01T11:36:54;17.80;;;10.20;;
25511;SDS011;13414;44.534;18.700;2023-04-01T11:39:33;21.60;;;12.02;;
25511;SDS011;13414;44.534;18.700;2023-04-01T11:42:28;21.45;;;11.27;;
25511;SDS011;13414;44.534;18.700;2023-04-01T11:48:19;40.60;;;20.95;;
25511;SDS011;13414;44.534;18.700;2023-04-01T11:54:06;61.35;;;25.85;;
25511;SDS011;13414;44.534;18.700;2023-04-01T11:56:56;47.15;;;22.02;;
25511;SDS011;13414;44.534;18.700;2023-04-01T12:02:48;22.50;;;10.45;;
25511;SDS011;13414;44.534;18.700;2023-04-01T12:05:41;19.77;;;10.70;;
25511;SDS011;13414;44.534;18.700;2023-04-01T12:08:16;16.60;;;9.15;;
25511;SDS011;13414;44.534;18.700;2023-04-01T12:10:53;12.68;;;7.25;;
25511;SDS011;13414;44.534;18.700;2023-04-01T12:13:32;11.52;;;7.78;;
25511;SDS011;13414;44.534;18.700;2023-04-01T12:19:18;12.13;;;8.38;;
25511;SDS011;13414;44.534;18.700;2023-04-01T12:21:58;16.15;;;9.60;;
25511;SDS011;13414;44.534;18.700;2023-04-01T12:24:45;11.40;;;7.72;;
25511;SDS011;13414;44.534;18.700;2023-04-01T12:27:19;11.63;;;7.68;;
25511;SDS011;13414;44.534;18.700;2023-04-01T12:32:58;16.52;;;9.95;;
25511;SDS011;13414;44.534;18.700;2023-04-01T12:35:46;13.50;;;8.65;;
25511;SDS011;13414;44.534;18.700;2023-04-01T12:38:30;15.45;;;8.82;;
25511;SDS011;13414;44.534;18.700;2023-04-01T12:41:07;16.75;;;10.98;;
25511;SDS011;13414;44.534;18.700;2023-04-01T12:49:49;14.27;;;8.90;;
25511;SDS011;13414;44.534;18.700;2023-04-01T12:52:44;12.88;;;7.50;;
25511;SDS011;13414;44.534;18.700;2023-04-01T12:55:28;15.70;;;8.98;;
25511;SDS011;13414;44.534;18.700;2023-04-01T13:01:09;15.40;;;9.75;;
25511;SDS011;13414;44.534;18.700;2023-04-01T13:03:59;14.38;;;10.13;;
25511;SDS011;13414;44.534;18.700;2023-04-01T13:07:10;14.95;;;8.68;;
25511;SDS011;13414;44.534;18.700;2023-04-01T13:10:12;17.77;;;10.73;;
25511;SDS011;13414;44.534;18.700;2023-04-01T13:12:54;15.80;;;10.30;;
25511;SDS011;13414;44.534;18.700;2023-04-01T13:15:44;15.35;;;9.95;;
25511;SDS011;13414;44.534;18.700;2023-04-01T13:18:21;30.70;;;12.00;;
25511;SDS011;13414;44.534;18.700;2023-04-01T13:20:57;19.85;;;11.60;;
25511;SDS011;13414;44.534;18.700;2023-04-01T13:23:39;20.30;;;11.05;;
25511;SDS011;13414;44.534;18.700;2023-04-01T13:26:17;19.17;;;11.68;;
25511;SDS011;13414;44.534;18.700;2023-04-01T13:28:52;17.65;;;10.82;;
25511;SDS011;13414;44.534;18.700;2023-04-01T13:34:21;19.88;;;12.90;;
25511;SDS011;13414;44.534;18.700;2023-04-01T13:37:02;26.23;;;14.65;;
25511;SDS011;13414;44.534;18.700;2023-04-01T13:39:43;18.88;;;13.70;;
25511;SDS011;13414;44.534;18.700;2023-04-01T13:42:23;24.42;;;16.75;;
25511;SDS011;13414;44.534;18.700;2023-04-01T13:44:56;21.45;;;16.27;;
25511;SDS011;13414;44.534;18.700;2023-04-01T13:47:41;26.92;;;18.35;;
25511;SDS011;13414;44.534;18.700;2023-04-01T13:53:31;35.22;;;23.95;;
25511;SDS011;13414;44.534;18.700;2023-04-01T13:56:29;34.70;;;24.30;;
25511;SDS011;13414;44.534;18.700;2023-04-01T13:59:16;34.40;;;25.02;;
25511;SDS011;13414;44.534;18.700;2023-04-01T14:02:13;36.22;;;27.08;;
25511;SDS011;13414;44.534;18.700;2023-04-01T14:05:02;35.47;;;26.23;;
25511;SDS011;13414;44.534;18.700;2023-04-01T14:07:44;34.95;;;25.20;;
25511;SDS011;13414;44.534;18.700;2023-04-01T14:10:23;40.72;;;27.73;;
25511;SDS011;13414;44.534;18.700;2023-04-01T14:15:35;45.40;;;30.55;;
25511;SDS011;13414;44.534;18.700;2023-04-01T14:18:24;42.60;;;30.10;;
25511;SDS011;13414;44.534;18.700;2023-04-01T14:21:14;38.17;;;26.52;;
25511;SDS011;13414;44.534;18.700;2023-04-01T14:23:59;41.22;;;27.92;;
25511;SDS011;13414;44.534;18.700;2023-04-01T14:29:36;33.85;;;26.40;;
25511;SDS011;13414;44.534;18.700;2023-04-01T14:32:15;31.38;;;23.25;;
25511;SDS011;13414;44.534;18.700;2023-04-01T14:34:53;22.27;;;16.33;;
25511;SDS011;13414;44.534;18.700;2023-04-01T14:37:39;27.58;;;24.00;;
25511;SDS011;13414;44.534;18.700;2023-04-01T14:40:33;25.48;;;20.85;;
25511;SDS011;13414;44.534;18.700;2023-04-01T14:43:38;19.67;;;15.23;;
25511;SDS011;13414;44.534;18.700;2023-04-01T14:46:34;22.60;;;16.52;;
25511;SDS011;13414;44.534;18.700;2023-04-01T14:49:32;28.48;;;22.52;;
25511;SDS011;13414;44.534;18.700;2023-04-01T14:52:10;31.77;;;21.92;;
25511;SDS011;13414;44.534;18.700;2023-04-01T14:54:42;28.88;;;22.88;;
25511;SDS011;13414;44.534;18.700;2023-04-01T14:57:14;31.90;;;22.92;;
25511;SDS011;13414;44.534;18.700;2023-04-01T14:59:49;35.58;;;25.40;;
25511;SDS011;13414;44.534;18.700;2023-04-01T15:02:30;31.40;;;24.20;;
25511;SDS011;13414;44.534;18.700;2023-04-01T15:05:15;30.63;;;22.10;;
25511;SDS011;13414;44.534;18.700;2023-04-01T15:07:58;34.42;;;25.48;;
25511;SDS011;13414;44.534;18.700;2023-04-01T15:10:46;35.42;;;27.38;;
25511;SDS011;13414;44.534;18.700;2023-04-01T15:13:49;40.20;;;27.73;;
25511;SDS011;13414;44.534;18.700;2023-04-01T15:16:50;37.28;;;25.30;;
25511;SDS011;13414;44.534;18.700;2023-04-01T15:19:31;37.13;;;28.23;;
25511;SDS011;13414;44.534;18.700;2023-04-01T15:25:00;31.70;;;21.27;;
25511;SDS011;13414;44.534;18.700;2023-04-01T15:27:41;38.75;;;17.67;;
25511;SDS011;13414;44.534;18.700;2023-04-01T15:30:16;26.27;;;15.90;;
25511;SDS011;13414;44.534;18.700;2023-04-01T15:33:00;23.08;;;15.82;;
25511;SDS011;13414;44.534;18.700;2023-04-01T15:35:42;26.30;;;17.65;;
25511;SDS011;13414;44.534;18.700;2023-04-01T15:38:17;20.65;;;13.43;;
25511;SDS011;13414;44.534;18.700;2023-04-01T15:40:56;18.38;;;12.50;;
25511;SDS011;13414;44.534;18.700;2023-04-01T15:43:35;22.05;;;13.00;;
25511;SDS011;13414;44.534;18.700;2023-04-01T15:46:20;19.67;;;11.23;;
25511;SDS011;13414;44.534;18.700;2023-04-01T15:49:02;12.32;;;7.90;;
25511;SDS011;13414;44.534;18.700;2023-04-01T15:54:48;10.15;;;4.80;;
25511;SDS011;13414;44.534;18.700;2023-04-01T15:57:31;5.32;;;2.88;;
25511;SDS011;13414;44.534;18.700;2023-04-01T16:00:22;8.77;;;3.80;;
25511;SDS011;13414;44.534;18.700;2023-04-01T16:02:56;7.30;;;3.92;;
25511;SDS011;13414;44.534;18.700;2023-04-01T16:05:43;7.50;;;4.85;;
25511;SDS011;13414;44.534;18.700;2023-04-01T16:08:37;7.57;;;4.45;;
25511;SDS011;13414;44.534;18.700;2023-04-01T16:11:22;7.55;;;5.10;;
25511;SDS011;13414;44.534;18.700;2023-04-01T16:14:02;9.10;;;4.90;;
25511;SDS011;13414;44.534;18.700;2023-04-01T16:16:44;11.55;;;5.00;;
25511;SDS011;13414;44.534;18.700;2023-04-01T16:19:26;5.88;;;3.80;;
25511;SDS011;13414;44.534;18.700;2023-04-01T16:22:05;6.85;;;3.25;;
25511;SDS011;13414;44.534;18.700;2023-04-01T16:24:38;7.57;;;4.00;;
25511;SDS011;13414;44.534;18.700;2023-04-01T16:27:12;5.50;;;3.00;;
25511;SDS011;13414;44.534;18.700;2023-04-01T16:29:47;6.05;;;2.30;;
25511;SDS011;13414;44.534;18.700;2023-04-01T16:32:20;7.20;;;3.80;;
25511;SDS011;13414;44.534;18.700;2023-04-01T16:34:58;7.55;;;4.03;;
25511;SDS011;13414;44.534;18.700;2023-04-01T16:37:39;9.10;;;5.18;;
25511;SDS011;13414;44.534;18.700;2023-04-01T16:40:16;9.98;;;5.35;;
25511;SDS011;13414;44.534;18.700;2023-04-01T16:42:56;11.38;;;5.97;;
25511;SDS011;13414;44.534;18.700;2023-04-01T16:45:39;11.57;;;6.07;;
25511;SDS011;13414;44.534;18.700;2023-04-01T16:48:11;11.73;;;6.35;;
25511;SDS011;13414;44.534;18.700;2023-04-01T16:50:48;18.98;;;9.85;;
25511;SDS011;13414;44.534;18.700;2023-04-01T16:53:25;142.70;;;62.13;;
25511;SDS011;13414;44.534;18.700;2023-04-01T16:56:06;255.10;;;112.32;;
25511;SDS011;13414;44.534;18.700;2023-04-01T16:58:40;316.67;;;136.55;;
25511;SDS011;13414;44.534;18.700;2023-04-01T17:01:12;273.45;;;124.40;;
25511;SDS011;13414;44.534;18.700;2023-04-01T17:03:43;253.88;;;115.15;;
25511;SDS011;13414;44.534;18.700;2023-04-01T17:06:18;120.65;;;60.33;;
25511;SDS011;13414;44.534;18.700;2023-04-01T17:08:56;106.30;;;53.15;;
25511;SDS011;13414;44.534;18.700;2023-04-01T17:11:39;95.18;;;49.08;;
25511;SDS011;13414;44.534;18.700;2023-04-01T17:14:16;85.53;;;48.97;;
25511;SDS011;13414;44.534;18.700;2023-04-01T17:16:59;111.57;;;65.97;;
25511;SDS011;13414;44.534;18.700;2023-04-01T17:22:49;121.15;;;74.93;;
25511;SDS011;13414;44.534;18.700;2023-04-01T17:25:44;122.82;;;74.47;;
25511;SDS011;13414;44.534;18.700;2023-04-01T17:28:24;104.00;;;60.20;;
25511;SDS011;13414;44.534;18.700;2023-04-01T17:31:02;78.45;;;48.08;;
25511;SDS011;13414;44.534;18.700;2023-04-01T17:33:45;75.65;;;44.90;;